5HUN weather

Huntfield Airfield
Morphett Vale, South Australia, Australia

Public forecast

Using degrees Celsius for public forecast. Weather courtesy of forecast.io.

Closest aviation weather report (METAR) to Huntfield Airfield

Closest report is Adelaide International Airport, 13.8 nm (25.5 km) N. Retrieved 2020/02/29 02:30 UTC (31 minutes ago):

YPAD 290230Z 27007KT 9999 FEW025 BKN270 22/13 Q1015 NOSIG

Closest aviation forecast (TAF) to Huntfield Airfield

Closest forecast is Adelaide International Airport, 13.8 nm (25.5 km) N. Retrieved 2020-02-29 00:00 UTC (3 hours ago):

TAF YPAD 282310Z 2900/0106 VRB05KT CAVOK FM290200 23010KT CAVOK FM291000 12006KT CAVOK FM291400 05008KT CAVOK FM010000 33012KT CAVOK FM010400 21014KT 9999 -SHRA NSC